Time;durP1;ratioP1;P1;durP2;ratioP2;P2;SDS_P1;SDS_P2;PMS_P1;PMS_P2;Temp;Humidity;BMP_temperature;BMP_pressure;BME280_temperature;BME280_humidity;BME280_pressure;Samples;Min_cycle;Max_cycle;Signal;HPM_P1;HPM_P2
2022/04/28 00:00:40;;;;;;;;;;;;;;;16.80;68.25;94821.09;4898030;29;19927;-86
2022/04/28 00:03:08;;;;;;;;;;;;;;;16.87;67.46;94822.91;4898214;29;20299;-86
2022/04/28 00:05:35;;;;;;;;;;;;;;;16.87;67.43;94814.13;4897538;29;19983;-86
2022/04/28 00:08:01;;;;;;;;;;;;;;;16.85;68.05;94824.06;4897927;29;20010;-86
2022/04/28 00:10:28;;;;;;;;;;;;;;;16.83;67.37;94826.06;4897733;29;19950;-86
2022/04/28 00:12:55;;;;;;;;;;;;;;;16.72;67.89;94822.75;4897675;29;19928;-87
2022/04/28 00:15:21;;;;;;;;;;;;;;;16.72;67.65;94824.56;4897826;29;20301;-86
2022/04/28 00:17:48;;;;;;;;;;;;;;;16.73;67.61;94821.75;4897620;29;19935;-86
2022/04/28 00:20:16;;;;;;;;;;;;;;;16.73;67.40;94827.06;4897966;29;19927;-86
2022/04/28 00:22:43;;;;;;;;;;;;;;;16.80;67.04;94826.41;4897488;29;20291;-86
2022/04/28 00:25:10;;;;;;;;;;;;;;;16.80;67.18;94821.09;4897424;29;19928;-86
2022/04/28 00:27:37;;;;;;;;;;;;;;;16.81;66.72;94825.41;4897518;29;19931;-86
2022/04/28 00:30:04;;;;;;;;;;;;;;;16.80;66.94;94821.09;4897713;29;19927;-85
2022/04/28 00:32:31;;;;;;;;;;;;;;;16.70;67.28;94826.56;4897795;29;19927;-86
2022/04/28 00:34:58;;;;;;;;;;;;;;;16.67;66.95;94824.25;4897608;29;19927;-86
2022/04/28 00:37:26;;;;;;;;;;;;;;;16.56;67.45;94835.19;4897413;29;19927;-86
2022/04/28 00:39:52;;;;;;;;;;;;;;;16.60;67.48;94837.34;4897682;29;20010;-86
2022/04/28 00:42:20;;;;;;;;;;;;;;;16.50;67.12;94834.03;4897684;29;19927;-86
2022/04/28 00:44:46;;;;;;;;;;;;;;;16.36;67.97;94838.19;4897438;29;19939;-86
2022/04/28 00:47:13;;;;;;;;;;;;;;;16.34;67.98;94842.81;4897553;29;20293;-86
2022/04/28 00:52:25;;;;;;;;;;;;;;;16.00;69.05;94840.34;4897613;29;19935;-86
2022/04/28 00:54:54;;;;;;;;;;;;;;;15.95;69.61;94842.66;4897519;29;19943;-86
2022/04/28 00:57:21;;;;;;;;;;;;;;;15.93;69.92;94841.16;4897350;29;19927;-86
2022/04/28 00:59:48;;;;;;;;;;;;;;;15.85;70.17;94851.72;4897414;29;19928;-86
2022/04/28 01:02:17;;;;;;;;;;;;;;;15.75;70.59;94847.41;4897250;29;20364;-85
2022/04/28 01:04:44;;;;;;;;;;;;;;;15.82;70.42;94849.41;4897052;29;20398;-86
2022/04/28 01:07:11;;;;;;;;;;;;;;;15.61;72.43;94848.06;4897312;29;19927;-85
2022/04/28 01:09:38;;;;;;;;;;;;;;;15.54;74.44;94860.22;4897388;29;19936;-86
2022/04/28 01:12:08;;;;;;;;;;;;;;;15.71;74.15;94858.47;4897125;29;19934;-86
2022/04/28 01:14:35;;;;;;;;;;;;;;;15.82;74.00;94859.97;4896981;29;20306;-86
2022/04/28 01:17:01;;;;;;;;;;;;;;;15.29;76.50;94854.00;4897355;29;19928;-86
2022/04/28 01:19:28;;;;;;;;;;;;;;;14.84;78.59;94863.06;4900675;29;19928;-86
2022/04/28 01:21:57;;;;;;;;;;;;;;;14.64;79.82;94872.19;4901047;29;19928;-85
2022/04/28 01:24:23;;;;;;;;;;;;;;;14.72;78.92;94864.28;4900516;29;19928;-86
2022/04/28 01:26:50;;;;;;;;;;;;;;;14.72;78.61;94871.41;4900441;29;19927;-85
2022/04/28 01:29:17;;;;;;;;;;;;;;;14.70;78.84;94870.72;4900390;29;19939;-85
2022/04/28 01:31:43;;;;;;;;;;;;;;;14.84;78.26;94870.16;4900384;29;19927;-86
2022/04/28 01:34:10;;;;;;;;;;;;;;;15.06;77.61;94860.88;4900540;29;19939;-86
2022/04/28 01:36:37;;;;;;;;;;;;;;;15.19;76.42;94866.53;4900297;29;19927;-86
2022/04/28 01:39:07;;;;;;;;;;;;;;;15.36;75.75;94873.56;4900255;29;19931;-85
2022/04/28 01:41:33;;;;;;;;;;;;;;;15.48;75.75;94872.28;4900334;29;19950;-85
2022/04/28 01:44:00;;;;;;;;;;;;;;;15.57;74.97;94873.13;4900023;29;19928;-85
2022/04/28 01:46:27;;;;;;;;;;;;;;;15.68;74.32;94872.03;4900422;29;20336;-85
2022/04/28 01:48:53;;;;;;;;;;;;;;;15.76;74.48;94878.16;4900069;29;19933;-85
2022/04/28 01:56:49;;;;;;;;;;;;;;;16.00;72.53;94865.97;4898045;29;20054;-86
2022/04/28 01:59:16;;;;;;;;;;;;;;;16.08;72.15;94877.38;4899939;29;20363;-85
2022/04/28 02:01:42;;;;;;;;;;;;;;;16.11;72.57;94885.00;4900080;29;19927;-85
2022/04/28 02:04:09;;;;;;;;;;;;;;;16.11;71.87;94879.72;4899840;29;19927;-86
2022/04/28 02:06:35;;;;;;;;;;;;;;;16.12;72.33;94880.53;4899519;29;19934;-86
2022/04/28 02:09:03;;;;;;;;;;;;;;;16.14;71.38;94883.00;4899819;29;19927;-86
2022/04/28 02:11:30;;;;;;;;;;;;;;;16.09;72.15;94884.34;4899636;29;19932;-86
2022/04/28 02:13:58;;;;;;;;;;;;;;;16.06;71.98;94891.78;4899409;29;19928;-86
2022/04/28 02:16:24;;;;;;;;;;;;;;;16.02;72.01;94893.94;4899620;29;19928;-86
2022/04/28 02:18:51;;;;;;;;;;;;;;;15.98;72.03;94889.97;4899416;29;19927;-86
2022/04/28 02:21:17;;;;;;;;;;;;;;;15.98;72.78;94900.56;4899584;29;20261;-86
2022/04/28 02:23:44;;;;;;;;;;;;;;;15.96;72.39;94894.59;4897382;29;19927;-86
2022/04/28 02:26:11;;;;;;;;;;;;;;;15.90;72.59;94899.69;4899218;29;19928;-86
2022/04/28 02:28:37;;;;;;;;;;;;;;;15.87;72.51;94892.91;4899268;29;20014;-86
2022/04/28 02:31:05;;;;;;;;;;;;;;;15.89;73.40;94896.22;4899734;29;19928;-86
2022/04/28 02:33:32;;;;;;;;;;;;;;;15.91;72.80;94904.84;4899241;29;19928;-86
2022/04/28 02:35:59;;;;;;;;;;;;;;;15.91;72.43;94894.25;4899323;29;19927;-86
2022/04/28 02:38:25;;;;;;;;;;;;;;;15.91;72.35;94894.25;4899236;29;19954;-86
2022/04/28 02:40:52;;;;;;;;;;;;;;;15.92;72.63;94895.91;4899333;29;19928;-85
2022/04/28 02:43:19;;;;;;;;;;;;;;;15.93;72.39;94908.16;4912656;29;19928;-85
2022/04/28 02:45:46;;;;;;;;;;;;;;;15.91;72.95;94896.06;4898883;29;19983;-86
2022/04/28 02:48:14;;;;;;;;;;;;;;;15.84;73.17;94903.81;4899053;29;19927;-86
2022/04/28 02:50:41;;;;;;;;;;;;;;;15.84;72.97;94903.81;4898944;29;19927;-86
2022/04/28 02:53:08;;;;;;;;;;;;;;;15.84;72.83;94905.63;4898990;29;19932;-85
2022/04/28 02:55:34;;;;;;;;;;;;;;;15.76;72.81;94904.63;4898435;29;19935;-86
2022/04/28 02:58:01;;;;;;;;;;;;;;;15.69;72.85;94908.91;4898850;29;19934;-86
2022/04/28 03:00:28;;;;;;;;;;;;;;;15.64;73.24;94905.09;4899125;29;19970;-85
2022/04/28 03:02:55;;;;;;;;;;;;;;;15.55;73.81;94909.47;4899019;29;19927;-86
2022/04/28 03:05:23;;;;;;;;;;;;;;;15.54;74.23;94907.00;4912219;29;20435;-85
2022/04/28 03:10:53;;;;;;;;;;;;;;;15.52;75.20;94919.56;4898430;29;19935;-84
2022/04/28 03:13:21;;;;;;;;;;;;;;;15.53;75.17;94918.56;4899728;29;20395;-86
2022/04/28 03:15:48;;;;;;;;;;;;;;;15.55;75.23;94919.22;4899642;29;19931;-86
2022/04/28 03:18:15;;;;;;;;;;;;;;;15.59;74.86;94920.59;4900312;29;20323;-86
2022/04/28 03:20:43;;;;;;;;;;;;;;;15.61;74.97;94924.75;4899755;29;19934;-88
2022/04/28 03:23:11;;;;;;;;;;;;;;;15.61;74.38;94923.91;4900111;29;20020;-88
2022/04/28 03:25:38;;;;;;;;;;;;;;;15.59;74.29;94924.06;4899837;29;19935;-88
2022/04/28 03:28:04;;;;;;;;;;;;;;;15.55;74.19;94937.75;4900153;29;19927;-85
2022/04/28 03:30:31;;;;;;;;;;;;;;;15.60;73.81;94946.88;4899148;29;19934;-85
2022/04/28 03:32:58;;;;;;;;;;;;;;;15.59;73.80;94947.88;4899208;29;19931;-88
2022/04/28 03:35:24;;;;;;;;;;;;;;;15.58;74.70;94945.34;4899706;29;19934;-92
2022/04/28 03:37:52;;;;;;;;;;;;;;;15.52;74.55;94951.28;4899766;29;19933;-86
2022/04/28 03:40:19;;;;;;;;;;;;;;;15.42;74.35;94962.81;4898743;29;19934;-87
2022/04/28 03:42:47;;;;;;;;;;;;;;;15.26;74.91;94960.06;4899048;29;20391;-87
2022/04/28 03:45:14;;;;;;;;;;;;;;;15.20;75.24;94963.34;4881743;29;19927;-85
2022/04/28 03:50:45;;;;;;;;;;;;;;;15.25;76.48;94966.34;4899352;29;19926;-85
2022/04/28 03:53:13;;;;;;;;;;;;;;;15.33;76.60;94974.34;4899002;29;19950;-86
2022/04/28 03:55:40;;;;;;;;;;;;;;;15.28;76.12;94971.31;4899327;29;19927;-84
2022/04/28 03:58:06;;;;;;;;;;;;;;;15.31;76.30;94976.28;4898765;29;19927;-85
2022/04/28 04:00:33;;;;;;;;;;;;;;;15.33;75.82;94977.00;4898957;29;19928;-84
2022/04/28 04:02:59;;;;;;;;;;;;;;;15.29;75.86;94972.97;4898982;29;20307;-86
2022/04/28 04:05:26;;;;;;;;;;;;;;;15.37;75.99;94980.97;4898795;29;19927;-86
2022/04/28 04:07:53;;;;;;;;;;;;;;;15.40;75.76;94980.66;4898412;29;19936;-86
2022/04/28 04:13:24;;;;;;;;;;;;;;;15.56;76.97;94982.53;4898427;29;19930;-86
2022/04/28 04:15:51;;;;;;;;;;;;;;;15.57;78.77;94980.72;4899948;29;19927;-88
2022/04/28 04:18:17;;;;;;;;;;;;;;;15.63;79.45;94982.78;4899110;29;20379;-87
2022/04/28 04:20:44;;;;;;;;;;;;;;;15.69;79.42;94977.69;4898764;29;19943;-87
2022/04/28 04:23:10;;;;;;;;;;;;;;;15.71;80.48;94974.88;4898850;29;19927;-86
2022/04/28 04:25:37;;;;;;;;;;;;;;;15.58;81.75;94979.75;4898603;29;19934;-86
2022/04/28 04:28:04;;;;;;;;;;;;;;;15.38;83.08;94979.16;4899094;29;19928;-86
2022/04/28 04:33:16;;;;;;;;;;;;;;;15.20;84.54;94989.78;4898589;29;20386;-86
2022/04/28 04:35:43;;;;;;;;;;;;;;;15.12;85.10;94992.38;4896816;29;19934;-85
2022/04/28 04:38:09;;;;;;;;;;;;;;;15.12;86.00;94995.03;4898882;29;19927;-85
2022/04/28 04:40:36;;;;;;;;;;;;;;;15.10;85.89;94995.19;4898475;29;19927;-86
2022/04/28 04:43:03;;;;;;;;;;;;;;;15.16;86.09;94985.81;4898608;29;19928;-85
2022/04/28 04:45:30;;;;;;;;;;;;;;;15.19;86.49;94993.41;4898752;29;19928;-84
2022/04/28 04:57:06;;;;;;;;;;;;;;;15.46;87.32;95001.19;4901550;29;19996;-87
2022/04/28 04:59:33;;;;;;;;;;;;;;;15.48;87.12;95004.50;4902416;29;19937;-85
2022/04/28 05:01:59;;;;;;;;;;;;;;;15.45;88.86;94999.53;4902155;29;19935;-85
2022/04/28 05:04:26;;;;;;;;;;;;;;;15.24;85.91;95006.16;4902034;29;19927;-85
2022/04/28 05:06:52;;;;;;;;;;;;;;;15.09;86.00;95013.84;4901996;29;19928;-83
2022/04/28 05:09:19;;;;;;;;;;;;;;;14.88;87.21;95019.47;4901451;29;19934;-86
2022/04/28 05:11:45;;;;;;;;;;;;;;;14.78;87.42;95019.56;4901833;29;20379;-87
2022/04/28 05:14:14;;;;;;;;;;;;;;;14.57;88.80;95014.56;4902134;29;19934;-85
2022/04/28 05:16:40;;;;;;;;;;;;;;;14.52;90.06;95018.66;4901800;29;19928;-86
2022/04/28 05:19:07;;;;;;;;;;;;;;;14.54;89.19;95020.16;4901820;29;19950;-85
2022/04/28 05:30:43;;;;;;;;;;;;;;;14.41;86.63;95035.50;4899755;29;20303;-85
2022/04/28 05:33:10;;;;;;;;;;;;;;;14.31;87.57;95032.09;4902350;29;19928;-85
2022/04/28 05:35:38;;;;;;;;;;;;;;;14.37;86.59;95041.25;4900270;29;19935;-85
2022/04/28 05:38:05;;;;;;;;;;;;;;;14.49;87.24;95034.81;4900028;29;19928;-85
2022/04/28 05:40:32;;;;;;;;;;;;;;;14.49;85.91;95032.16;4899973;29;19939;-86
2022/04/28 05:45:46;;;;;;;;;;;;;;;14.46;85.65;95038.59;4900033;29;19959;-85
2022/04/28 05:48:13;;;;;;;;;;;;;;;14.39;84.39;95042.75;4900092;29;20011;-85
2022/04/28 05:50:40;;;;;;;;;;;;;;;14.31;84.36;95047.13;4900208;29;19928;-85
2022/04/28 05:53:07;;;;;;;;;;;;;;;14.30;84.94;95051.56;4899992;29;19927;-85
2022/04/28 05:55:34;;;;;;;;;;;;;;;14.22;85.85;95054.97;4899819;29;19928;-86
2022/04/28 05:58:00;;;;;;;;;;;;;;;14.22;84.62;95057.59;4899609;29;19939;-86
2022/04/28 06:00:27;;;;;;;;;;;;;;;14.14;85.44;95060.13;4899914;29;19934;-85
2022/04/28 06:02:55;;;;;;;;;;;;;;;14.12;85.75;95062.09;4899794;29;19983;-85
2022/04/28 06:05:22;;;;;;;;;;;;;;;14.10;85.10;95066.69;4899360;29;19931;-85
2022/04/28 06:07:49;;;;;;;;;;;;;;;13.93;85.27;95070.13;4899770;29;20303;-86
2022/04/28 06:10:16;;;;;;;;;;;;;;;13.90;86.73;95067.78;4899523;29;19927;-85
2022/04/28 06:12:42;;;;;;;;;;;;;;;13.81;87.26;95061.53;4899788;29;19928;-85
2022/04/28 06:15:09;;;;;;;;;;;;;;;13.82;87.79;95063.19;4899648;29;20308;-85
2022/04/28 06:17:36;;;;;;;;;;;;;;;13.71;87.49;95066.03;4899495;29;20403;-85
2022/04/28 06:20:05;;;;;;;;;;;;;;;13.68;88.66;95062.84;4899535;29;19931;-85
2022/04/28 06:22:31;;;;;;;;;;;;;;;13.53;88.94;95068.59;4899340;29;19928;-85
2022/04/28 06:24:59;;;;;;;;;;;;;;;13.61;91.09;95081.91;4899491;29;19932;-85
2022/04/28 06:27:28;;;;;;;;;;;;;;;13.63;90.41;95079.94;4899567;29;19983;-85
2022/04/28 06:29:54;;;;;;;;;;;;;;;13.70;90.85;95079.38;4899142;29;20288;-85
2022/04/28 06:32:21;;;;;;;;;;;;;;;13.63;89.71;95077.31;4899089;29;19928;-85
2022/04/28 06:34:48;;;;;;;;;;;;;;;13.55;89.63;95079.81;4899372;29;20358;-84
2022/04/28 06:37:16;;;;;;;;;;;;;;;13.58;89.84;95087.44;4899143;29;19934;-85
2022/04/28 06:39:43;;;;;;;;;;;;;;;13.65;89.64;95085.06;4898980;29;19928;-85
2022/04/28 06:42:09;;;;;;;;;;;;;;;13.71;89.01;95089.78;4898998;29;19934;-85
2022/04/28 06:44:36;;;;;;;;;;;;;;;13.86;89.58;95082.19;4898807;29;20423;-85
2022/04/28 06:47:04;;;;;;;;;;;;;;;13.74;87.68;95086.84;4898903;29;19932;-85
2022/04/28 06:49:31;;;;;;;;;;;;;;;13.68;88.61;95089.22;4899146;29;20389;-81
2022/04/28 06:51:58;;;;;;;;;;;;;;;13.60;89.39;95082.88;4899012;29;20395;-85
2022/04/28 06:54:26;;;;;;;;;;;;;;;13.54;89.67;95085.22;4898984;29;19928;-85
2022/04/28 06:56:53;;;;;;;;;;;;;;;13.45;88.83;95083.47;4898796;29;20283;-85
2022/04/28 06:59:20;;;;;;;;;;;;;;;13.42;90.56;95097.75;4898550;29;19934;-85
2022/04/28 07:01:47;;;;;;;;;;;;;;;13.43;89.79;95093.31;4896731;29;19970;-85
2022/04/28 07:04:14;;;;;;;;;;;;;;;13.45;89.23;95100.09;4898682;29;19934;-85
2022/04/28 07:06:40;;;;;;;;;;;;;;;13.35;89.78;95099.31;4898619;29;19928;-85
2022/04/28 07:09:07;;;;;;;;;;;;;;;13.43;91.81;95095.97;4898719;29;20022;-85
2022/04/28 07:11:35;;;;;;;;;;;;;;;13.38;89.86;95104.28;4898689;29;19931;-85
2022/04/28 07:14:02;;;;;;;;;;;;;;;13.47;89.88;95103.44;4898492;29;19935;-85
2022/04/28 07:16:28;;;;;;;;;;;;;;;13.49;89.65;95104.13;4897902;29;19931;-85
2022/04/28 07:18:55;;;;;;;;;;;;;;;13.56;90.50;95110.47;4898660;29;20299;-85
2022/04/28 07:21:21;;;;;;;;;;;;;;;13.64;89.28;95107.97;4898358;29;19928;-85
2022/04/28 07:23:48;;;;;;;;;;;;;;;13.71;88.72;95108.22;4898446;29;19938;-85
2022/04/28 07:26:15;;;;;;;;;;;;;;;13.70;88.93;95111.00;4897933;29;19934;-85
2022/04/28 07:28:43;;;;;;;;;;;;;;;13.68;90.77;95108.53;4898386;29;19927;-85
2022/04/28 07:31:09;;;;;;;;;;;;;;;13.64;89.60;95109.78;4898174;29;19947;-85
2022/04/28 07:33:36;;;;;;;;;;;;;;;13.65;89.35;95116.72;4898116;29;19934;-85
2022/04/28 07:36:03;;;;;;;;;;;;;;;13.71;89.56;95115.31;4896254;29;19928;-86
2022/04/28 07:38:30;;;;;;;;;;;;;;;13.63;89.44;95119.50;4898195;29;19975;-85
2022/04/28 07:40:56;;;;;;;;;;;;;;;13.72;89.73;95122.25;4898234;29;19949;-85
2022/04/28 07:43:25;;;;;;;;;;;;;;;13.81;88.95;95121.38;4898808;29;19931;-86
2022/04/28 07:45:53;;;;;;;;;;;;;;;13.93;88.46;95125.50;4897838;29;19927;-85
2022/04/28 07:48:21;;;;;;;;;;;;;;;14.07;87.94;95122.38;4897184;29;20117;-85
2022/04/28 07:50:49;;;;;;;;;;;;;;;14.13;87.02;95124.44;4897757;29;19928;-85
2022/04/28 07:53:15;;;;;;;;;;;;;;;14.26;86.67;95124.13;4897816;29;20280;-85
2022/04/28 07:55:42;;;;;;;;;;;;;;;14.30;85.30;95133.41;4897590;29;19928;-85
2022/04/28 07:58:09;;;;;;;;;;;;;;;14.36;84.97;95127.53;4897764;29;19931;-86
2022/04/28 08:00:36;;;;;;;;;;;;;;;14.23;85.33;95135.81;4898125;29;19927;-85
2022/04/28 08:03:04;;;;;;;;;;;;;;;14.10;85.30;95139.72;4897716;29;20384;-85
2022/04/28 08:05:30;;;;;;;;;;;;;;;14.04;87.91;95143.78;4897362;29;19927;-85
2022/04/28 08:07:57;;;;;;;;;;;;;;;13.98;87.35;95144.38;4897587;29;19927;-85
2022/04/28 08:10:23;;;;;;;;;;;;;;;14.02;87.06;95137.81;4897600;29;19928;-85
2022/04/28 08:12:50;;;;;;;;;;;;;;;14.02;86.90;95140.47;4897564;29;19934;-85
2022/04/28 08:15:17;;;;;;;;;;;;;;;14.06;86.33;95136.56;4897615;29;20299;-86
2022/04/28 08:17:44;;;;;;;;;;;;;;;14.07;87.07;95143.50;4897517;29;19927;-85
2022/04/28 08:20:12;;;;;;;;;;;;;;;14.13;86.99;95137.63;4897477;29;19934;-85
2022/04/28 08:22:39;;;;;;;;;;;;;;;14.07;85.76;95147.94;4897470;29;19931;-86
2022/04/28 08:25:06;;;;;;;;;;;;;;;14.10;86.20;95152.94;4898065;29;19927;-86
2022/04/28 08:27:32;;;;;;;;;;;;;;;14.05;86.19;95150.72;4899860;29;19934;-85
2022/04/28 08:29:59;;;;;;;;;;;;;;;14.08;86.38;95150.44;4901372;29;19932;-85
2022/04/28 08:32:25;;;;;;;;;;;;;;;14.09;85.99;95152.09;4901306;29;20392;-86
2022/04/28 08:34:52;;;;;;;;;;;;;;;14.12;85.51;95153.63;4901658;29;19928;-86
2022/04/28 08:37:20;;;;;;;;;;;;;;;14.16;85.57;95155.81;4901106;29;19928;-85
2022/04/28 08:39:47;;;;;;;;;;;;;;;14.25;86.13;95156.78;4901117;29;19928;-85
2022/04/28 08:42:15;;;;;;;;;;;;;;;14.14;84.94;95157.78;4901417;29;19927;-85
2022/04/28 08:44:44;;;;;;;;;;;;;;;14.21;84.98;95163.31;4901329;29;20368;-85
2022/04/28 08:47:11;;;;;;;;;;;;;;;14.10;84.96;95163.50;4901194;29;19934;-85
2022/04/28 08:49:38;;;;;;;;;;;;;;;14.17;85.19;95168.06;4901172;29;20308;-85
2022/04/28 08:52:08;;;;;;;;;;;;;;;14.26;85.84;95158.44;4901151;29;19927;-85
2022/04/28 08:54:37;;;;;;;;;;;;;;;14.17;85.24;95164.59;4901305;29;19934;-85
2022/04/28 08:57:04;;;;;;;;;;;;;;;14.20;85.85;95164.31;4900890;29;19983;-85
2022/04/28 08:59:30;;;;;;;;;;;;;;;14.25;85.17;95164.69;4900942;29;20287;-85
2022/04/28 09:01:57;;;;;;;;;;;;;;;14.19;85.03;95162.63;4900948;29;19928;-85
2022/04/28 09:04:24;;;;;;;;;;;;;;;14.19;85.40;95166.09;4901135;29;19927;-85
2022/04/28 09:06:51;;;;;;;;;;;;;;;14.30;85.87;95164.25;4900756;29;19928;-85
2022/04/28 09:09:19;;;;;;;;;;;;;;;14.33;84.98;95163.94;4900950;29;19934;-85
2022/04/28 09:11:47;;;;;;;;;;;;;;;14.38;84.76;95164.34;4900850;29;19927;-85
2022/04/28 09:14:15;;;;;;;;;;;;;;;14.40;84.46;95160.56;4900785;29;19928;-85
2022/04/28 09:16:45;;;;;;;;;;;;;;;14.31;84.95;95171.19;4900577;29;19927;-85
2022/04/28 09:19:12;;;;;;;;;;;;;;;14.26;85.77;95158.44;4898671;29;20399;-85
2022/04/28 09:21:40;;;;;;;;;;;;;;;14.35;85.66;95172.56;4900557;29;19927;-85
2022/04/28 09:24:07;;;;;;;;;;;;;;;14.33;85.46;95164.78;4900463;29;19992;-86
2022/04/28 09:26:34;;;;;;;;;;;;;;;14.37;86.43;95173.25;4900312;29;19927;-85
2022/04/28 09:29:03;;;;;;;;;;;;;;;14.40;85.19;95171.13;4900638;29;19928;-85
2022/04/28 09:31:31;;;;;;;;;;;;;;;14.49;84.60;95167.66;4900393;29;20093;-85
2022/04/28 09:34:04;;;;;;;;;;;;;;;14.59;84.39;95169.41;4900238;29;19934;-85
2022/04/28 09:36:31;;;;;;;;;;;;;;;14.62;83.81;95172.59;4900195;29;19934;-85
2022/04/28 09:38:57;;;;;;;;;;;;;;;14.67;83.40;95172.97;4899948;29;19927;-85
2022/04/28 09:44:12;;;;;;;;;;;;;;;14.68;84.07;95172.00;4900334;29;19951;-86
2022/04/28 09:46:40;;;;;;;;;;;;;;;14.77;83.87;95176.41;4882365;29;20281;-85
2022/04/28 09:49:06;;;;;;;;;;;;;;;14.93;83.18;95172.25;4898032;29;19927;-85
2022/04/28 09:51:33;;;;;;;;;;;;;;;14.88;82.46;95170.91;4899918;29;19935;-85
2022/04/28 09:54:00;;;;;;;;;;;;;;;14.95;82.59;95173.75;4900332;29;19954;-85
2022/04/28 09:56:30;;;;;;;;;;;;;;;15.10;82.28;95169.63;4899734;29;19934;-85
2022/04/28 09:58:57;;;;;;;;;;;;;;;15.10;81.09;95174.94;4899781;29;19928;-86
2022/04/28 10:01:25;;;;;;;;;;;;;;;15.01;80.74;95167.03;4899877;29;19928;-86
2022/04/28 10:03:52;;;;;;;;;;;;;;;15.00;80.78;95171.50;4900020;29;19927;-84
2022/04/28 10:06:18;;;;;;;;;;;;;;;14.95;80.13;95175.56;4899571;29;19939;-86
2022/04/28 10:08:46;;;;;;;;;;;;;;;14.93;79.96;95174.91;4899641;29;19928;-85
2022/04/28 10:11:17;;;;;;;;;;;;;;;14.95;79.84;95180.88;4913604;29;19928;-85
2022/04/28 10:13:44;;;;;;;;;;;;;;;14.84;80.81;95169.53;4899796;29;19928;-85
2022/04/28 10:16:13;;;;;;;;;;;;;;;14.84;80.54;95168.72;4899705;29;19934;-86
2022/04/28 10:18:44;;;;;;;;;;;;;;;14.83;80.24;95173.16;4899534;29;19932;-86
2022/04/28 10:21:12;;;;;;;;;;;;;;;14.94;80.03;95168.63;4899459;29;19928;-86
2022/04/28 10:35:03;;;;;;;;;;;;;;;15.43;77.09;95160.19;4899342;29;19934;-85
2022/04/28 10:37:33;;;;;;;;;;;;;;;15.54;77.28;95161.75;4897195;29;19928;-85
2022/04/28 10:40:00;;;;;;;;;;;;;;;15.69;77.58;95146.19;4899339;29;19931;-85
2022/04/28 10:42:45;;;;;;;;;;;;;;;15.76;76.01;95157.81;4898933;29;20436;-85
2022/04/28 10:45:19;;;;;;;;;;;;;;;15.75;75.65;95154.31;4899159;29;19927;-85
2022/04/28 10:47:46;;;;;;;;;;;;;;;15.69;75.22;95152.31;4898809;29;19934;-85
2022/04/28 10:50:23;;;;;;;;;;;;;;;15.79;75.86;95157.50;4898107;29;19927;-85
2022/04/28 10:52:54;;;;;;;;;;;;;;;15.77;75.37;95162.09;4898839;29;19928;-85
2022/04/28 10:55:23;;;;;;;;;;;;;;;15.78;75.45;95153.19;4898794;29;19942;-85
2022/04/28 10:57:50;;;;;;;;;;;;;;;15.76;75.25;95155.16;4898695;29;20018;-85
2022/04/28 11:00:33;;;;;;;;;;;;;;;15.69;74.22;95157.59;4898950;29;19950;-85
2022/04/28 11:03:00;;;;;;;;;;;;;;;15.69;75.08;95156.78;4899012;29;19935;-85
2022/04/28 11:05:33;;;;;;;;;;;;;;;15.68;75.01;95153.28;4898788;29;19928;-85
2022/04/28 11:08:01;;;;;;;;;;;;;;;15.73;76.65;95153.66;4898352;29;19971;-85
2022/04/28 11:10:28;;;;;;;;;;;;;;;15.84;75.01;95151.72;4898809;29;19934;-85
2022/04/28 11:12:55;;;;;;;;;;;;;;;15.97;75.44;95152.97;4898861;29;19931;-86
2022/04/28 11:15:23;;;;;;;;;;;;;;;16.14;73.90;95151.25;4898863;29;19927;-86
2022/04/28 11:17:50;;;;;;;;;;;;;;;16.30;72.93;95153.16;4898486;29;19982;-85
2022/04/28 11:20:20;;;;;;;;;;;;;;;16.40;72.83;95146.72;4896380;29;20423;-85
2022/04/28 11:22:49;;;;;;;;;;;;;;;16.57;72.50;95147.63;4898447;29;19927;-85
2022/04/28 11:25:17;;;;;;;;;;;;;;;16.63;71.58;95154.09;4898444;29;19934;-85
2022/04/28 11:27:44;;;;;;;;;;;;;;;16.60;71.29;95152.63;4896286;29;20291;-85
2022/04/28 11:30:12;;;;;;;;;;;;;;;16.71;71.80;95154.16;4898067;29;19927;-85
2022/04/28 11:32:45;;;;;;;;;;;;;;;16.63;71.28;95160.25;4898515;29;19928;-86
2022/04/28 11:35:12;;;;;;;;;;;;;;;16.58;70.67;95151.13;4898434;29;19927;-85
2022/04/28 11:37:39;;;;;;;;;;;;;;;16.55;70.86;95154.09;4898120;29;19932;-85
2022/04/28 11:40:12;;;;;;;;;;;;;;;16.56;70.85;95153.94;4898130;29;19927;-85
2022/04/28 11:42:39;;;;;;;;;;;;;;;16.59;71.94;95153.59;4898340;29;19971;-85
2022/04/28 11:45:07;;;;;;;;;;;;;;;16.60;70.38;95155.25;4898442;29;19967;-85
2022/04/28 11:47:38;;;;;;;;;;;;;;;16.65;70.82;95146.81;4898147;29;19928;-85
2022/04/28 11:50:05;;;;;;;;;;;;;;;16.66;70.57;95141.41;4897636;29;20291;-85
2022/04/28 11:52:33;;;;;;;;;;;;;;;16.71;70.68;95148.84;4897855;29;19951;-86
2022/04/28 11:55:00;;;;;;;;;;;;;;;16.76;70.62;95141.25;4897748;29;20357;-85
2022/04/28 11:57:29;;;;;;;;;;;;;;;16.85;70.75;95136.81;4897711;29;19927;-85
2022/04/28 11:59:57;;;;;;;;;;;;;;;16.84;69.70;95130.69;4897715;29;19927;-85
2022/04/28 12:02:25;;;;;;;;;;;;;;;16.88;70.28;95137.31;4897430;29;20394;-85
2022/04/28 12:04:52;;;;;;;;;;;;;;;16.97;69.69;95125.72;4897626;29;19928;-85
2022/04/28 12:07:19;;;;;;;;;;;;;;;17.06;70.79;95131.91;4897730;29;19927;-86
2022/04/28 12:15:17;;;;;;;;;;;;;;;17.33;68.56;95128.06;4845207;29;19935;-85
2022/04/28 12:20:40;;;;;;;;;;;;;;;17.45;68.40;95132.06;4859498;29;19936;-86
2022/04/28 12:23:07;;;;;;;;;;;;;;;17.48;67.62;95128.25;4843752;29;19928;-86
2022/04/28 12:25:38;;;;;;;;;;;;;;;17.45;67.37;95129.44;4859243;29;19928;-85
2022/04/28 12:28:06;;;;;;;;;;;;;;;17.47;67.77;95123.94;4858954;29;19935;-82
2022/04/28 12:30:35;;;;;;;;;;;;;;;17.40;67.38;95129.09;4859557;29;19928;-83
2022/04/28 12:33:03;;;;;;;;;;;;;;;17.45;67.04;95125.94;4859432;29;19928;-85
2022/04/28 12:35:32;;;;;;;;;;;;;;;17.37;68.32;95126.78;4859017;29;19935;-85
2022/04/28 12:38:00;;;;;;;;;;;;;;;17.41;68.13;95121.97;4857980;29;19928;-86
2022/04/28 12:40:27;;;;;;;;;;;;;;;17.31;67.48;95122.94;4858077;29;19928;-85
2022/04/28 12:42:55;;;;;;;;;;;;;;;17.25;68.00;95118.31;4857750;29;19964;-85
2022/04/28 12:45:42;;;;;;;;;;;;;;;17.22;68.68;95113.34;4842561;29;20015;-86
2022/04/28 12:48:22;;;;;;;;;;;;;;;17.24;68.05;95111.34;4857787;29;20020;-85
2022/04/28 12:50:50;;;;;;;;;;;;;;;17.17;68.04;95110.34;4897655;29;19927;-86
2022/04/28 12:53:30;;;;;;;;;;;;;;;17.03;69.04;95108.34;4897384;29;20418;-86
2022/04/28 12:56:02;;;;;;;;;;;;;;;17.08;69.42;95107.88;4897292;29;20280;-86
2022/04/28 12:58:29;;;;;;;;;;;;;;;17.03;69.06;95108.34;4911042;29;19927;-85
2022/04/28 13:00:59;;;;;;;;;;;;;;;17.07;69.63;95104.38;4896419;29;19934;-85
2022/04/28 13:03:28;;;;;;;;;;;;;;;17.06;68.85;95108.03;4897117;29;20315;-86
2022/04/28 13:05:55;;;;;;;;;;;;;;;17.00;69.76;95108.66;4897843;29;20368;-86
2022/04/28 13:08:22;;;;;;;;;;;;;;;16.87;69.64;95108.31;4892588;29;19938;-86
2022/04/28 13:10:49;;;;;;;;;;;;;;;16.84;69.61;95114.78;4879458;29;19928;-85
2022/04/28 13:13:15;;;;;;;;;;;;;;;16.82;70.02;95118.59;4879777;29;20380;-85
2022/04/28 13:15:42;;;;;;;;;;;;;;;16.94;70.01;95114.63;4883089;29;19951;-86
2022/04/28 13:18:10;;;;;;;;;;;;;;;16.90;69.01;95103.53;4883407;29;19975;-86
2022/04/28 13:20:37;;;;;;;;;;;;;;;16.95;69.49;95106.50;4883096;29;19928;-86
2022/04/28 13:23:03;;;;;;;;;;;;;;;17.01;69.58;95112.97;4883041;29;19931;-86
2022/04/28 13:25:30;;;;;;;;;;;;;;;17.02;69.22;95106.69;4882964;29;19927;-86
2022/04/28 13:27:56;;;;;;;;;;;;;;;16.97;69.23;95106.34;4882799;29;19928;-86
2022/04/28 13:30:23;;;;;;;;;;;;;;;16.76;68.78;95105.97;4882551;29;19935;-83
2022/04/28 13:32:50;;;;;;;;;;;;;;;16.57;70.19;95099.13;4885471;29;19927;-86
2022/04/28 13:35:18;;;;;;;;;;;;;;;16.41;70.98;95105.19;4901562;29;19938;-88
2022/04/28 13:37:44;;;;;;;;;;;;;;;16.39;71.88;95104.50;4901596;29;20392;-86
2022/04/28 13:49:20;;;;;;;;;;;;;;;16.37;72.31;95103.84;4900991;29;19969;-92
2022/04/28 13:51:48;;;;;;;;;;;;;;;16.49;73.42;95102.59;4900990;29;19927;-86
2022/04/28 13:54:14;;;;;;;;;;;;;;;16.69;73.08;95105.78;4895974;29;19928;-84
2022/04/28 13:56:41;;;;;;;;;;;;;;;16.79;71.32;95109.16;4882605;29;20022;-85
2022/04/28 13:59:08;;;;;;;;;;;;;;;16.81;71.14;95106.34;4882764;29;20372;-85
2022/04/28 14:01:37;;;;;;;;;;;;;;;16.70;71.59;95102.97;4882870;29;19971;-86